Mainsville, Pennsylvania
Current Conditions -  °F | °C
As of 2:53 AM on Sunday 21 Dec 2014 (Local Time) from KRYT Reporting Station
Overcast Overcast  
Wind Chill: -2°   Ceiling: 7000
Heat Index: -2°   Visibility: 8mi
Dew Point: -5°   Wind: 0mph
Humidity: 78%   Direction: NA
Pressure: 30.26"   Gusts: NA
Location:  40.0414°N, 77.4967°W
Report Text: KRYT 210753Z AUTO 00000KT 8SM OVC070 M02/M05 A3026 RMK AO2 SLP262 T10171050 $
Loading
Personal Weather Stations






























Interactive Weather Map New forecast layout! Learn more

10-Day Weather Forecast

Advertisements
Track Severe Weather on mobile